Terminal Aerodrome Forecast
Issued by NWS

Home | Current Version | Previous Version | Text Only | Print | Product List | Glossary On
Versions: 1 2 3 4 5 6 7 8 9 10 11 12 13 14 15
000
FTUS45 KBOU 280532
TAFAPA
TAF
KAPA 280532Z 2806/2906 20007KT P6SM SKC
     FM281200 26006KT P6SM SKC
     FM281600 36005KT P6SM SKC
     FM281900 07008KT P6SM FEW120
     FM282300 10012KT P6SM FEW120 SCT200
     FM290300 14011KT P6SM FEW120 SCT200=

USA.gov is the U.S. government's official web portal to all federal, state and local government web resources and services.